Theseus — 9HA4385 — position and weather

sailwx.info

Track history (hours):
 
Tides and Currents Weather Stations Pressure Air Temp Water Temp Dewpoint Dewpoint Depression Visibility Wind Speed Wind Dir Waves Ship Positions

Theseus

Last reported at 2018-Jun-20 13:32 UTC. Time now 2018-Jun-22 00:00 UTC.
Position N 01°37' E 102°53'.

Length 369 m; draft 15.5 m.

Type: Ship (hazmat cat A). MMSI: 249808000.

Date/timePositionNaut miles runAvg speedWind from/ knotsBaromVisibWave heightAir tempDewpointWater temp
2018-Jun-20 13:32N 01°37' E 102°53'121.2
2018-Jun-20 13:29N 01°37' E 102°54'1120.6
2018-Jun-20 12:56N 01°30' E 103°03'1021.0
2018-Jun-20 12:28N 01°24' E 103°11'919.9
2018-Jun-20 12:00N 01°19' E 103°18'1020.0
2018-Jun-20 11:30N 01°13' E 103°27'917.7
2018-Jun-20 11:00N 01°12' E 103°35'612.1
2018-Jun-20 10:30N 01°13' E 103°41'4 9.0
2018-Jun-20 10:00N 01°16' E 103°45'3 5.6
2018-Jun-20 09:31N 01°16' E 103°48'0 0.9
2018-Jun-20 09:00N 01°16' E 103°48'0 0.0
2018-Jun-20 08:30N 01°16' E 103°48'0 0.0
2018-Jun-20 08:00N 01°16' E 103°48'0 0.0
2018-Jun-20 07:30N 01°16' E 103°48'0 0.0
2018-Jun-20 07:00N 01°16' E 103°48'0 0.0
2018-Jun-20 06:30N 01°16' E 103°48'0 0.0
2018-Jun-20 06:00N 01°16' E 103°48'0 0.0
2018-Jun-20 05:30N 01°16' E 103°48'0 0.0
2018-Jun-20 05:00N 01°16' E 103°48'0 0.0
2018-Jun-20 04:30N 01°16' E 103°48'0 0.0
2018-Jun-20 03:54N 01°16' E 103°48'0 0.0
2018-Jun-20 03:30N 01°16' E 103°48'0 0.0
2018-Jun-20 03:00N 01°16' E 103°48'0 0.0
2018-Jun-20 02:28N 01°16' E 103°48'0 0.0
2018-Jun-20 01:58N 01°16' E 103°48'0 0.0
2018-Jun-20 01:30N 01°16' E 103°48'0 0.0
2018-Jun-20 01:00N 01°16' E 103°48'0 0.0
2018-Jun-20 00:30N 01°16' E 103°48'0 0.0
2018-Jun-19 23:57N 01°16' E 103°48'0 0.0
2018-Jun-19 23:30N 01°16' E 103°48'0 0.0
2018-Jun-19 23:00N 01°16' E 103°48'0 0.0
2018-Jun-19 22:30N 01°16' E 103°48'0 0.0
2018-Jun-19 22:00N 01°16' E 103°48'0 0.0
2018-Jun-19 21:30N 01°16' E 103°48'0 0.0
2018-Jun-19 21:00N 01°16' E 103°48'0 0.0
2018-Jun-19 20:28N 01°16' E 103°48'0 0.0
2018-Jun-19 20:00N 01°16' E 103°48'0 0.0
2018-Jun-19 19:27N 01°16' E 103°48'0 0.0
2018-Jun-19 18:57N 01°16' E 103°48'0 0.0
2018-Jun-19 18:31N 01°16' E 103°48'0 0.0
2018-Jun-19 18:00N 01°16' E 103°48'0 0.0
2018-Jun-19 17:30N 01°16' E 103°48'0 0.0
2018-Jun-19 17:00N 01°16' E 103°48'0 0.0
2018-Jun-19 16:30N 01°16' E 103°48'0 0.0
2018-Jun-19 16:00N 01°16' E 103°48'0 0.0
2018-Jun-19 15:30N 01°16' E 103°48'0 0.0
2018-Jun-19 15:00N 01°16' E 103°48'0 0.1
2018-Jun-19 14:30N 01°16' E 103°48'1 1.0
2018-Jun-19 14:00N 01°15' E 103°47'0 0.2
2018-Jun-19 13:30N 01°15' E 103°47'3 5.1
2018-Jun-19 13:00N 01°13' E 103°48'611.1
2018-Jun-19 12:30N 01°13' E 103°54'4 7.6
2018-Jun-19 12:00N 01°15' E 103°57'4 7.4
2018-Jun-19 11:30N 01°16' E 104°01'4 7.5
2018-Jun-19 10:59N 01°17' E 104°05'4 7.4
2018-Jun-19 10:29N 01°17' E 104°08'4 7.2
2018-Jun-19 09:59N 01°17' E 104°12'3 6.8
2018-Jun-19 09:30N 01°18' E 104°15'3 6.7
2018-Jun-19 08:59N 01°19' E 104°19'3 6.5
2018-Jun-19 08:29N 01°20' E 104°21'4 6.5
2018-Jun-19 07:57N 01°22' E 104°24'4 9.0
2018-Jun-19 07:28N 01°25' E 104°27'913.7
2018-Jun-19 06:47N 01°32' E 104°34'3214.8
2018-Jun-19 04:37N 02°02' E 104°46'  
2018-Jun-15 12:33N 22°18' E 114°06'2 5.6
2018-Jun-15 12:13N 22°19' E 114°07'0 0.0
2018-Jun-14 22:09N 22°19' E 114°08'0 1.2
2018-Jun-14 21:49N 22°19' E 114°07'30219.7
2018-Jun-14 06:26N 22°26' E 119°34'920.7
2018-Jun-14 06:00N 22°28' E 119°43'1020.6
2018-Jun-14 05:30N 22°30' E 119°54'1020.0
2018-Jun-14 05:00N 22°32' E 120°05'917.8
2018-Jun-14 04:30N 22°33' E 120°14'5 9.2
2018-Jun-14 03:59N 22°33' E 120°19'1 0.8
2018-Jun-14 03:20N 22°33' E 120°19'0 0.0
2018-Jun-14 02:56N 22°33' E 120°19'0 0.0
2018-Jun-14 02:26N 22°33' E 120°19'0 0.0
2018-Jun-14 01:56N 22°33' E 120°19'0 0.0
2018-Jun-14 01:26N 22°33' E 120°19'0 0.0
2018-Jun-14 00:56N 22°33' E 120°19'0 0.0
2018-Jun-14 00:20N 22°33' E 120°19'0 0.0
2018-Jun-13 23:50N 22°33' E 120°19'0 0.0
2018-Jun-13 23:26N 22°33' E 120°19'0 0.0
2018-Jun-13 22:44N 22°33' E 120°19'0 0.0
2018-Jun-13 22:20N 22°33' E 120°19'0 0.0
2018-Jun-13 21:26N 22°33' E 120°19'0 0.0
2018-Jun-13 20:44N 22°33' E 120°19'0 0.0
2018-Jun-13 20:26N 22°33' E 120°19'0 0.0
2018-Jun-13 19:44N 22°33' E 120°19'0 0.0
2018-Jun-13 19:08N 22°33' E 120°19'0 0.0
2018-Jun-13 18:50N 22°33' E 120°19'0 0.0
2018-Jun-13 15:05N 22°33' E 120°19'0 0.6
2018-Jun-13 14:59N 22°33' E 120°19'2 2.9
2018-Jun-13 14:27N 22°33' E 120°17'3 6.6
2018-Jun-13 13:59N 22°32' E 120°14'3 5.9
2018-Jun-13 13:29N 22°31' E 120°11'1 2.0
2018-Jun-13 12:58N 22°31' E 120°10'0 0.7
2018-Jun-13 12:29N 22°31' E 120°10'1 1.2
2018-Jun-13 12:00N 22°31' E 120°10'0 0.6
2018-Jun-13 11:30N 22°31' E 120°10'0 0.3
2018-Jun-13 11:00N 22°31' E 120°10'1 1.1
2018-Jun-13 10:30N 22°31' E 120°11'3 5.1
2018-Jun-13 10:00N 22°33' E 120°10'510.8
2018-Jun-13 09:30N 22°38' E 120°07'510.8
2018-Jun-13 09:00N 22°43' E 120°05'611.2
2018-Jun-13 08:30N 22°48' E 120°02'611.4
2018-Jun-13 08:00N 22°53' E 119°59'  
Track history (hours):
 
Tides and Currents Weather Stations Pressure Air Temp Water Temp Dewpoint Dewpoint Depression Visibility Wind Speed Wind Dir Waves Ship Positions

Theseus

Last reported at 2018-Jun-20 13:32 UTC. Time now 2018-Jun-22 00:00 UTC.
Position N 01°37' E 102°53'.

Length 369 m; draft 15.5 m.

Type: Ship (hazmat cat A). MMSI: 249808000.

Date/timePositionNaut miles runAvg speedWind from/ knotsBaromVisibWave heightAir tempDewpointWater temp
2018-Jun-20 13:32N 01°37' E 102°53'121.2
2018-Jun-20 13:29N 01°37' E 102°54'1120.6
2018-Jun-20 12:56N 01°30' E 103°03'1021.0
2018-Jun-20 12:28N 01°24' E 103°11'919.9
2018-Jun-20 12:00N 01°19' E 103°18'1020.0
2018-Jun-20 11:30N 01°13' E 103°27'917.7
2018-Jun-20 11:00N 01°12' E 103°35'612.1
2018-Jun-20 10:30N 01°13' E 103°41'4 9.0
2018-Jun-20 10:00N 01°16' E 103°45'3 5.6
2018-Jun-20 09:31N 01°16' E 103°48'0 0.9
2018-Jun-20 09:00N 01°16' E 103°48'0 0.0
2018-Jun-20 08:30N 01°16' E 103°48'0 0.0
2018-Jun-20 08:00N 01°16' E 103°48'0 0.0
2018-Jun-20 07:30N 01°16' E 103°48'0 0.0
2018-Jun-20 07:00N 01°16' E 103°48'0 0.0
2018-Jun-20 06:30N 01°16' E 103°48'0 0.0
2018-Jun-20 06:00N 01°16' E 103°48'0 0.0
2018-Jun-20 05:30N 01°16' E 103°48'0 0.0
2018-Jun-20 05:00N 01°16' E 103°48'0 0.0
2018-Jun-20 04:30N 01°16' E 103°48'0 0.0
2018-Jun-20 03:54N 01°16' E 103°48'0 0.0
2018-Jun-20 03:30N 01°16' E 103°48'0 0.0
2018-Jun-20 03:00N 01°16' E 103°48'0 0.0
2018-Jun-20 02:28N 01°16' E 103°48'0 0.0
2018-Jun-20 01:58N 01°16' E 103°48'0 0.0
2018-Jun-20 01:30N 01°16' E 103°48'0 0.0
2018-Jun-20 01:00N 01°16' E 103°48'0 0.0
2018-Jun-20 00:30N 01°16' E 103°48'0 0.0
2018-Jun-19 23:57N 01°16' E 103°48'0 0.0
2018-Jun-19 23:30N 01°16' E 103°48'0 0.0
2018-Jun-19 23:00N 01°16' E 103°48'0 0.0
2018-Jun-19 22:30N 01°16' E 103°48'0 0.0
2018-Jun-19 22:00N 01°16' E 103°48'0 0.0
2018-Jun-19 21:30N 01°16' E 103°48'0 0.0
2018-Jun-19 21:00N 01°16' E 103°48'0 0.0
2018-Jun-19 20:28N 01°16' E 103°48'0 0.0
2018-Jun-19 20:00N 01°16' E 103°48'0 0.0
2018-Jun-19 19:27N 01°16' E 103°48'0 0.0
2018-Jun-19 18:57N 01°16' E 103°48'0 0.0
2018-Jun-19 18:31N 01°16' E 103°48'0 0.0
2018-Jun-19 18:00N 01°16' E 103°48'0 0.0
2018-Jun-19 17:30N 01°16' E 103°48'0 0.0
2018-Jun-19 17:00N 01°16' E 103°48'0 0.0
2018-Jun-19 16:30N 01°16' E 103°48'0 0.0
2018-Jun-19 16:00N 01°16' E 103°48'0 0.0
2018-Jun-19 15:30N 01°16' E 103°48'0 0.0
2018-Jun-19 15:00N 01°16' E 103°48'0 0.1
2018-Jun-19 14:30N 01°16' E 103°48'1 1.0
2018-Jun-19 14:00N 01°15' E 103°47'0 0.2
2018-Jun-19 13:30N 01°15' E 103°47'3 5.1
2018-Jun-19 13:00N 01°13' E 103°48'611.1
2018-Jun-19 12:30N 01°13' E 103°54'4 7.6
2018-Jun-19 12:00N 01°15' E 103°57'4 7.4
2018-Jun-19 11:30N 01°16' E 104°01'4 7.5
2018-Jun-19 10:59N 01°17' E 104°05'4 7.4
2018-Jun-19 10:29N 01°17' E 104°08'4 7.2
2018-Jun-19 09:59N 01°17' E 104°12'3 6.8
2018-Jun-19 09:30N 01°18' E 104°15'3 6.7
2018-Jun-19 08:59N 01°19' E 104°19'3 6.5
2018-Jun-19 08:29N 01°20' E 104°21'4 6.5
2018-Jun-19 07:57N 01°22' E 104°24'4 9.0
2018-Jun-19 07:28N 01°25' E 104°27'913.7
2018-Jun-19 06:47N 01°32' E 104°34'3214.8
2018-Jun-19 04:37N 02°02' E 104°46'  
2018-Jun-15 12:33N 22°18' E 114°06'2 5.6
2018-Jun-15 12:13N 22°19' E 114°07'0 0.0
2018-Jun-14 22:09N 22°19' E 114°08'0 1.2
2018-Jun-14 21:49N 22°19' E 114°07'30219.7
2018-Jun-14 06:26N 22°26' E 119°34'920.7
2018-Jun-14 06:00N 22°28' E 119°43'1020.6
2018-Jun-14 05:30N 22°30' E 119°54'1020.0
2018-Jun-14 05:00N 22°32' E 120°05'917.8
2018-Jun-14 04:30N 22°33' E 120°14'5 9.2
2018-Jun-14 03:59N 22°33' E 120°19'1 0.8
2018-Jun-14 03:20N 22°33' E 120°19'0 0.0
2018-Jun-14 02:56N 22°33' E 120°19'0 0.0
2018-Jun-14 02:26N 22°33' E 120°19'0 0.0
2018-Jun-14 01:56N 22°33' E 120°19'0 0.0
2018-Jun-14 01:26N 22°33' E 120°19'0 0.0
2018-Jun-14 00:56N 22°33' E 120°19'0 0.0
2018-Jun-14 00:20N 22°33' E 120°19'0 0.0
2018-Jun-13 23:50N 22°33' E 120°19'0 0.0
2018-Jun-13 23:26N 22°33' E 120°19'0 0.0
2018-Jun-13 22:44N 22°33' E 120°19'0 0.0
2018-Jun-13 22:20N 22°33' E 120°19'0 0.0
2018-Jun-13 21:26N 22°33' E 120°19'0 0.0
2018-Jun-13 20:44N 22°33' E 120°19'0 0.0
2018-Jun-13 20:26N 22°33' E 120°19'0 0.0
2018-Jun-13 19:44N 22°33' E 120°19'0 0.0
2018-Jun-13 19:08N 22°33' E 120°19'0 0.0
2018-Jun-13 18:50N 22°33' E 120°19'0 0.0
2018-Jun-13 15:05N 22°33' E 120°19'0 0.6
2018-Jun-13 14:59N 22°33' E 120°19'2 2.9
2018-Jun-13 14:27N 22°33' E 120°17'3 6.6
2018-Jun-13 13:59N 22°32' E 120°14'3 5.9
2018-Jun-13 13:29N 22°31' E 120°11'1 2.0
2018-Jun-13 12:58N 22°31' E 120°10'0 0.7
2018-Jun-13 12:29N 22°31' E 120°10'1 1.2
2018-Jun-13 12:00N 22°31' E 120°10'0 0.6
2018-Jun-13 11:30N 22°31' E 120°10'0 0.3
2018-Jun-13 11:00N 22°31' E 120°10'1 1.1
2018-Jun-13 10:30N 22°31' E 120°11'3 5.1
2018-Jun-13 10:00N 22°33' E 120°10'510.8
2018-Jun-13 09:30N 22°38' E 120°07'510.8
2018-Jun-13 09:00N 22°43' E 120°05'611.2
2018-Jun-13 08:30N 22°48' E 120°02'611.4
2018-Jun-13 08:00N 22°53' E 119°59'  

Dump ship's entire track history